Date,TemperatureHighF,TemperatureAvgF,TemperatureLowF,DewpointHighF,DewpointAvgF,DewpointLowF,HumidityHigh,HumidityAvg,HumidityLow,PressureMaxIn,PressureMinIn,WindSpeedMaxMPH,WindSpeedAvgMPH,GustSpeedMaxMPH,PrecipitationSumIn
2013-1-1,66,56,48,65,54,45,96,94,88,30.17,29.88,7,2,14,4.35
2013-1-2,48,45,43,45,42,40,94,88,81,30.28,30.12,7,2,12,0.05
2013-1-3,55,46,42,40,38,34,90,74,50,30.40,30.26,7,2,13,0.00
2013-1-4,49,46,42,38,36,34,76,69,57,30.50,30.32,8,2,13,0.00
2013-1-5,48,45,43,44,42,37,96,89,71,30.36,30.23,8,1,9,1.04
2013-1-6,59,49,45,46,44,41,96,81,60,30.31,30.21,8,2,12,0.01
2013-1-7,58,49,40,46,42,38,92,78,58,30.32,30.12,10,3,14,0.00
2013-1-8,63,57,50,62,55,45,96,91,78,30.12,29.97,11,4,19,0.37
2013-1-9,66,64,61,65,62,60,97,96,94,30.11,29.92,12,3,19,3.34
2013-1-10,65,61,52,64,60,51,97,96,93,30.10,29.93,8,1,13,1.29
2013-1-11,74,60,46,70,56,45,97,87,50,30.06,29.92,6,1,13,0.02
2013-1-12,76,72,70,71,70,68,96,93,83,29.96,29.81,16,6,21,0.00
2013-1-13,72,56,46,69,54,44,95,92,87,30.12,29.75,18,4,23,0.06
2013-1-14,47,42,38,45,40,37,95,91,84,30.18,30.04,12,4,16,0.09
2013-1-15,42,38,35,39,37,34,95,94,88,30.11,30.01,8,2,11,0.56
2013-1-16,45,38,33,39,35,32,96,91,78,30.25,30.08,10,2,15,0.09
2013-1-17,59,44,32,37,33,29,92,67,40,30.46,30.23,8,2,14,0.00
2013-1-18,62,44,32,39,35,27,96,75,29,30.54,30.38,8,1,11,0.00
2013-1-19,66,46,32,49,41,30,97,84,49,30.38,30.21,3,0,6,0.00
2013-1-20,70,51,36,54,44,35,97,81,43,30.27,30.12,5,0,7,0.01
2013-1-21,70,53,39,53,44,-100,97,79,47,30.23,30.15,6,-10,7,0.00
2013-1-22,69,51,42,50,44,38,95,79,47,30.36,30.22,9,1,10,0.00
2013-1-23,72,56,43,60,52,42,97,85,60,30.38,30.25,8,2,13,0.01
2013-1-24,71,60,48,64,57,47,97,89,75,30.33,30.19,8,2,14,0.00
2013-1-25,76,64,54,64,60,53,96,87,62,30.22,30.11,10,2,14,0.01
2013-1-26,77,63,54,67,58,53,97,86,59,30.21,30.13,9,1,12,0.01
2013-1-27,74,65,56,64,61,55,96,87,69,30.20,30.11,14,3,18,0.01
2013-1-28,74,69,64,68,66,62,95,90,81,30.18,30.04,10,4,17,0.00
2013-1-29,78,72,68,71,69,66,95,90,78,30.04,29.67,20,9,26,0.00
2013-1-30,71,55,37,69,38,-100,93,57,34,30.22,29.68,17,-5,30,0.06
2013-1-31,63,47,31,41,34,25,96,67,25,30.33,30.21,12,1,15,0.00
2013-2-1,70,52,43,49,41,-100,94,73,36,30.40,30.28,6,-20,9,0.00
2013-2-2,72,56,43,57,51,42,96,83,57,30.29,30.18,8,1,10,0.00
2013-2-3,72,57,45,55,44,31,96,68,23,30.31,30.09,6,1,10,0.01
2013-2-4,69,58,45,61,55,43,95,88,70,30.09,29.89,6,1,11,0.05
2013-2-5,74,64,59,67,62,57,96,91,73,30.01,29.89,5,1,7,0.98
2013-2-6,66,60,56,63,59,55,96,95,89,30.09,29.89,9,2,15,1.14
2013-2-7,70,62,58,63,59,57,96,91,78,29.98,29.86,6,1,10,0.00
2013-2-8,67,60,52,60,56,49,97,86,68,30.16,29.98,8,2,13,0.00
2013-2-9,67,58,49,63,55,47,94,89,79,30.17,29.94,9,2,14,0.00
2013-2-10,76,68,63,71,66,60,96,91,84,29.96,29.82,18,5,27,0.11
2013-2-11,64,56,52,62,54,51,95,94,88,30.12,29.95,11,4,19,1.52
2013-2-12,71,59,54,70,57,52,97,93,85,30.00,29.73,11,4,19,0.01
2013-2-13,61,53,45,52,44,40,89,74,48,30.08,29.91,9,3,18,0.05
2013-2-14,64,48,35,44,40,34,96,77,43,30.17,30.05,6,1,8,0.00
2013-2-15,68,52,37,50,41,36,97,71,37,30.27,30.09,8,2,13,0.02
2013-2-16,58,47,37,41,29,23,89,52,28,30.40,30.25,14,3,22,0.00
2013-2-17,67,51,34,49,43,32,94,75,49,30.28,30.13,14,2,16,0.00
2013-2-18,70,64,54,64,58,49,94,83,70,30.13,29.89,23,6,25,0.84
2013-2-19,66,56,48,57,42,34,94,60,31,30.25,30.00,12,4,14,0.07
2013-2-20,62,53,46,47,40,30,76,61,46,30.20,29.93,14,5,18,0.00
2013-2-21,72,63,55,69,61,47,95,91,76,29.92,29.69,14,4,22,0.45
2013-2-22,65,61,57,62,54,48,96,78,57,29.96,29.84,9,3,14,0.00
2013-2-23,70,57,50,51,49,46,89,75,51,29.98,29.87,7,2,10,0.00
2013-2-24,69,57,45,59,51,43,94,79,52,29.97,29.69,10,3,13,0.05
2013-2-25,76,64,50,71,56,33,96,78,32,29.68,29.43,15,4,24,0.22
2013-2-26,64,52,44,43,38,34,82,59,40,29.93,29.67,17,4,23,0.00
2013-2-27,71,56,44,55,43,32,91,64,30,30.10,29.92,14,2,18,0.00
2013-2-28,54,47,41,39,33,30,79,58,42,30.24,30.10,16,2,16,0.00
2013-3-1,62,50,41,37,32,27,75,53,28,30.23,30.11,10,3,23,0.00
2013-3-2,52,43,33,34,30,26,86,61,39,30.30,30.19,9,2,22,0.00
2013-3-3,62,45,29,42,33,26,95,68,28,30.29,30.07,9,1,13,0.00
2013-3-4,72,61,45,61,56,42,95,82,67,30.07,29.85,14,5,26,0.00
2013-3-5,71,64,51,63,47,29,93,60,23,30.27,29.85,13,3,23,0.00
2013-3-6,69,52,39,42,30,22,89,49,18,30.39,30.23,9,1,12,0.00
2013-3-7,66,51,40,42,38,34,91,65,33,30.34,30.21,10,2,11,0.00
2013-3-8,72,57,41,56,48,39,95,76,50,30.27,30.10,7,2,12,0.00
2013-3-9,72,62,55,63,59,51,95,89,74,30.09,29.84,10,3,21,0.00
2013-3-10,73,62,54,66,59,52,96,91,79,29.95,29.80,12,3,23,1.07
2013-3-11,61,51,40,46,36,31,86,58,35,30.09,29.95,11,3,22,0.00
2013-3-12,71,54,36,47,38,34,93,61,29,30.25,30.07,6,1,9,0.00
2013-3-13,73,56,40,44,37,29,95,58,21,30.45,30.25,10,2,17,0.00
2013-3-14,71,54,38,46,40,33,93,66,25,30.45,30.30,7,1,11,0.00
2013-3-15,74,58,43,60,53,42,96,83,61,30.30,30.09,15,2,18,0.00
2013-3-16,76,66,55,62,59,53,96,79,57,30.08,29.91,13,3,18,0.01
2013-3-17,76,68,60,67,64,58,96,88,73,29.92,29.75,15,4,20,0.00
2013-3-18,83,72,67,71,67,65,96,86,63,29.89,29.74,9,2,13,0.00
2013-3-19,77,67,54,66,52,41,91,59,45,30.01,29.89,11,4,17,0.00
2013-3-20,74,63,51,52,43,34,91,53,23,30.19,29.96,13,3,17,0.13
2013-3-21,69,59,50,56,46,39,82,63,36,30.05,29.77,11,3,18,0.00
2013-3-22,81,70,60,71,66,57,95,88,72,29.79,29.68,8,3,16,0.00
2013-3-23,74,70,68,70,68,67,96,95,87,29.76,29.56,7,1,9,0.06
2013-3-24,68,60,47,67,46,31,95,63,33,30.09,29.61,21,4,26,0.00
2013-3-25,61,48,38,34,27,-100,74,50,23,30.32,30.10,9,-10,17,0.00
2013-3-26,62,48,33,34,26,23,79,46,26,30.47,30.32,8,2,18,0.00
2013-3-27,66,49,35,45,38,31,91,69,38,30.43,30.25,7,2,11,0.00
2013-3-28,73,57,41,55,49,39,93,77,46,30.34,30.21,8,2,14,0.00
2013-3-29,77,64,52,61,57,51,96,81,56,30.28,30.16,7,1,12,0.00
2013-3-30,76,66,58,65,60,56,96,84,57,30.18,30.00,13,2,18,0.00
2013-3-31,77,65,58,70,63,57,96,92,76,30.00,29.85,10,2,26,0.75
2013-4-1,80,66,54,64,58,53,97,81,50,30.09,29.95,8,1,11,0.01
2013-4-2,76,67,57,65,60,56,96,81,59,30.06,29.84,9,2,16,0.00
2013-4-3,68,56,49,63,54,47,96,92,82,30.05,29.75,15,2,21,3.21
2013-4-4,53,49,47,48,46,44,95,88,81,30.14,30.00,11,2,17,0.00
2013-4-5,75,56,46,53,47,44,94,75,39,30.22,30.07,7,1,14,0.00
2013-4-6,71,61,48,58,54,47,96,81,61,30.13,30.00,11,3,18,0.00
2013-4-7,78,69,59,64,61,57,95,78,56,30.03,29.91,10,4,16,0.00
2013-4-8,79,71,66,67,65,63,94,82,61,29.93,29.85,15,5,21,0.00
2013-4-9,78,73,66,72,70,65,96,89,81,29.91,29.79,19,7,26,0.00
2013-4-10,80,75,72,73,71,70,92,88,78,29.85,29.74,15,8,30,0.00
2013-4-11,73,55,48,71,51,46,95,86,60,29.88,29.69,8,2,21,1.26
2013-4-12,80,62,44,55,49,43,97,69,30,30.02,29.86,8,1,9,0.01
2013-4-13,80,65,51,59,53,48,92,68,39,30.01,29.80,10,2,14,0.00
2013-4-14,80,67,59,66,62,57,96,84,58,29.82,29.70,5,1,9,0.08
2013-4-15,85,70,61,74,66,60,97,87,62,29.87,29.76,12,2,13,0.01
2013-4-16,76,76,75,73,73,72,92,91,90,30.00,29.96,8,4,15,0.01
2013-4-17,84,77,73,75,72,71,93,87,73,29.99,29.84,14,6,24,0.00
2013-4-18,82,71,53,74,67,49,94,87,76,29.99,29.70,20,7,27,0.09
2013-4-19,67,54,46,49,40,35,87,61,34,30.21,29.99,10,2,17,0.00
2013-4-20,72,56,40,50,42,37,92,64,32,30.26,30.09,11,2,13,0.00
2013-4-21,76,61,45,53,49,44,96,70,42,30.20,30.07,10,2,12,0.00
2013-4-22,80,64,49,62,54,47,96,74,40,30.12,29.97,6,1,11,0.00
2013-4-23,82,71,57,70,66,56,96,85,62,30.02,29.91,10,3,16,0.00
2013-4-24,72,63,52,70,57,51,94,81,60,30.20,29.91,15,3,31,0.22
2013-4-25,72,62,52,54,49,45,85,65,39,30.31,30.18,13,4,15,0.00
2013-4-26,78,69,60,69,62,53,94,79,64,30.23,30.12,7,2,13,0.00
2013-4-27,80,73,68,70,69,66,96,87,70,30.13,29.96,8,2,23,0.10
2013-4-28,80,71,62,69,65,61,95,84,63,30.02,29.90,7,1,14,0.04
2013-4-29,84,70,60,70,65,59,97,85,59,29.96,29.84,7,1,12,0.23
2013-4-30,82,71,66,72,68,64,96,89,66,29.86,29.77,5,1,11,0.02
2013-5-1,84,73,66,72,67,64,96,84,61,29.88,29.80,7,1,11,0.03
2013-5-2,75,67,56,69,63,53,96,88,72,30.05,29.86,14,2,22,0.08
2013-5-3,66,54,45,52,44,37,89,70,37,30.10,29.99,14,4,25,0.00
2013-5-4,76,60,39,58,47,37,96,67,34,30.07,29.85,8,1,14,0.00
2013-5-5,69,59,48,58,45,41,88,62,42,30.05,29.91,12,2,16,0.00
2013-5-6,78,61,43,56,50,42,95,70,43,30.08,29.94,8,1,12,0.00
2013-5-7,85,70,55,63,58,53,94,70,40,30.06,29.97,7,1,14,0.00
2013-5-8,81,70,57,67,62,56,96,79,54,30.09,29.99,11,2,13,0.00
2013-5-9,79,72,63,71,68,62,96,89,75,30.06,29.89,12,3,23,0.00
2013-5-10,77,69,64,71,65,63,96,88,68,30.06,29.84,16,3,22,4.76
2013-5-11,84,72,65,71,67,64,96,84,62,30.09,29.84,17,1,19,1.35
2013-5-12,83,72,62,65,60,57,95,70,44,30.18,30.06,9,2,14,0.00
2013-5-13,82,67,51,62,53,42,95,67,24,30.30,30.16,8,1,10,0.00
2013-5-14,85,70,54,66,57,49,96,71,29,30.25,30.13,9,2,13,0.00
2013-5-15,79,70,61,68,65,60,96,85,65,30.16,29.98,9,3,14,0.00
2013-5-16,82,74,68,70,68,66,94,83,66,29.98,29.87,11,3,15,0.00
2013-5-17,85,77,71,75,72,69,94,85,68,29.98,29.88,10,3,16,0.00
2013-5-18,88,79,73,74,72,70,94,81,60,30.00,29.93,11,4,13,0.00
2013-5-19,86,79,74,76,74,72,92,83,65,29.95,29.87,15,6,19,0.00
2013-5-20,87,80,76,77,75,73,89,84,69,29.94,29.83,13,6,20,0.00
2013-5-21,86,80,76,76,75,73,93,85,69,29.90,29.76,14,5,19,0.00
2013-5-22,90,78,68,76,72,66,95,84,60,29.93,29.79,8,2,12,0.05
2013-5-23,90,80,72,78,74,71,97,84,61,30.05,29.91,8,2,13,0.02
2013-5-24,90,78,71,77,73,67,96,85,59,30.14,30.01,10,1,14,1.10
2013-5-25,87,77,69,77,71,66,94,82,65,30.17,30.08,8,2,11,0.02
2013-5-26,89,79,71,74,71,67,95,78,50,30.12,30.04,9,2,13,0.00
2013-5-27,88,78,69,73,71,67,96,80,57,30.07,29.96,9,2,16,0.00
2013-5-28,87,77,71,74,71,65,94,81,62,30.01,29.92,14,3,17,0.00
2013-5-29,87,79,70,74,72,69,95,81,62,29.95,29.85,14,3,17,0.00
2013-5-30,88,80,74,76,74,72,94,82,64,29.93,29.84,15,4,20,0.00
2013-5-31,88,81,77,77,76,74,94,85,67,29.94,29.87,12,4,17,0.10
2013-6-1,90,82,76,78,76,74,93,81,64,29.92,29.86,10,4,18,0.00
2013-6-2,86,77,69,75,72,68,96,86,65,30.01,29.86,8,1,14,0.83
2013-6-3,90,79,71,74,72,69,95,78,57,29.93,29.82,7,1,9,0.00
2013-6-4,97,83,72,77,73,69,92,73,43,29.92,29.81,5,1,7,0.00
2013-6-5,96,83,75,80,76,73,95,81,53,29.89,29.76,8,2,10,0.00
2013-6-6,91,77,67,79,73,65,96,88,66,29.86,29.71,9,1,24,0.70
2013-6-7,86,74,67,72,68,66,97,84,55,29.90,29.82,7,1,10,0.00
2013-6-8,89,77,68,75,70,63,95,80,60,29.92,29.84,9,1,17,0.00
2013-6-9,91,77,70,78,72,69,96,87,63,29.96,29.85,5,1,11,0.34
2013-6-10,93,81,70,79,74,69,97,81,58,29.98,29.93,7,1,11,0.00
2013-6-11,94,83,74,80,76,73,96,81,59,30.05,29.97,6,1,11,0.00
2013-6-12,94,84,74,79,76,73,96,80,59,30.07,29.98,7,1,10,0.00
2013-6-13,95,84,74,79,76,72,96,79,53,30.05,29.89,5,1,9,0.00
2013-6-14,95,84,73,81,77,70,96,82,59,29.96,29.84,7,1,14,0.89
2013-6-15,96,83,73,81,76,71,96,81,59,29.98,29.89,5,1,9,0.05
2013-6-16,94,84,74,78,75,73,95,77,56,30.03,29.93,7,1,13,0.00
2013-6-17,95,83,73,78,75,71,96,78,55,30.00,29.89,7,1,13,0.01
2013-6-18,92,82,73,77,75,71,95,79,55,29.97,29.88,9,1,13,0.45
2013-6-19,87,78,72,78,74,71,96,87,66,30.00,29.92,4,1,8,0.21
2013-6-20,95,81,73,78,75,71,96,84,50,30.08,29.98,6,0,17,0.09
2013-6-21,93,81,73,80,76,72,97,84,62,30.10,30.02,5,1,9,0.04
2013-6-22,94,83,73,77,75,72,96,79,56,30.07,29.95,5,1,10,0.00
2013-6-23,93,82,74,79,75,72,96,82,57,30.03,29.96,9,1,18,0.75
2013-6-24,93,83,75,78,75,73,94,78,60,30.08,30.01,7,2,17,0.01
2013-6-25,94,82,73,79,75,71,96,82,57,30.06,29.96,6,1,11,0.11
2013-6-26,95,85,76,79,76,74,93,76,55,30.02,29.93,7,1,11,0.00
2013-6-27,98,83,73,79,76,71,96,79,54,30.01,29.91,7,1,9,0.00
2013-6-28,96,85,78,80,77,72,95,78,48,29.97,29.78,9,2,11,0.00
2013-6-29,98,87,79,82,76,70,89,70,48,29.81,29.67,10,2,16,0.00
2013-6-30,92,84,73,73,67,62,90,60,38,29.81,29.73,9,1,14,0.00
2013-7-1,88,79,70,70,66,63,83,65,49,29.92,29.81,8,1,11,0.00
2013-7-2,93,79,67,69,66,64,92,67,41,29.99,29.91,9,1,12,0.00
2013-7-3,92,81,69,69,66,62,87,62,38,30.01,29.91,7,2,11,0.00
2013-7-4,92,80,69,72,68,64,94,68,43,29.97,29.89,10,1,10,0.00
2013-7-5,94,81,70,75,71,68,93,74,42,29.96,29.89,9,2,17,0.00
2013-7-6,92,79,71,76,73,69,95,82,54,29.95,29.88,8,3,11,0.00
2013-7-7,90,80,75,79,75,73,95,87,64,30.03,29.92,9,2,15,0.39
2013-7-8,93,81,74,79,76,73,96,84,57,30.11,30.01,11,2,12,0.00
2013-7-9,97,84,75,79,76,73,96,79,50,30.15,30.05,9,2,15,0.00
2013-7-10,95,84,73,78,75,72,95,76,53,30.08,29.95,8,1,13,0.00
2013-7-11,94,82,76,79,75,71,93,81,55,29.99,29.89,6,1,10,0.01
2013-7-12,97,83,75,81,76,73,95,81,54,29.95,29.84,7,1,10,0.06
2013-7-13,96,83,71,76,68,58,94,65,32,29.95,29.85,7,1,10,0.00
2013-7-14,93,81,71,75,70,67,91,72,45,29.95,29.88,5,1,5,0.00
2013-7-15,89,80,75,77,74,72,93,81,60,30.07,29.92,7,2,14,0.05
2013-7-16,88,79,73,76,74,71,94,86,68,30.12,30.03,13,4,18,0.11
2013-7-17,92,79,72,77,74,70,95,85,57,30.18,30.10,9,2,22,0.17
2013-7-18,95,81,71,76,72,70,96,78,50,30.14,29.99,8,1,16,0.00
2013-7-19,90,77,72,76,72,70,94,86,60,30.05,29.93,6,1,13,0.02
2013-7-20,93,79,70,76,72,69,96,81,50,29.98,29.87,13,1,22,0.00
2013-7-21,88,79,72,77,74,71,96,85,68,30.01,29.93,8,2,18,0.67
2013-7-22,94,84,75,81,78,74,95,83,64,30.03,29.96,8,1,14,0.00
2013-7-23,94,84,77,79,77,76,94,80,59,30.04,29.91,6,1,12,0.00
2013-7-24,95,84,75,79,77,73,94,80,56,29.99,29.86,7,1,15,0.00
2013-7-25,95,84,79,79,77,75,92,80,55,30.03,29.93,7,2,11,0.00
2013-7-26,96,84,74,79,76,73,96,79,52,30.05,29.92,9,2,13,0.00
2013-7-27,92,83,78,78,76,73,92,80,61,29.96,29.85,11,2,19,0.00
2013-7-28,91,80,74,79,76,72,94,86,67,29.99,29.89,7,2,9,0.02
2013-7-29,95,83,73,78,75,71,96,80,55,30.09,29.98,6,1,11,0.01
2013-7-30,95,82,70,79,73,69,96,78,47,30.12,30.04,7,1,13,0.00
2013-7-31,97,83,72,79,75,71,96,79,48,30.09,29.95,7,1,12,0.00
2013-8-1,99,84,76,79,76,74,94,79,47,30.02,29.88,5,1,10,0.00
2013-8-2,98,86,77,79,77,75,94,76,50,29.98,29.90,6,1,12,0.00
2013-8-3,97,85,75,78,76,73,95,77,51,30.04,29.96,6,1,10,0.00
2013-8-4,95,84,76,80,77,74,95,79,60,30.07,29.97,5,1,10,0.06
2013-8-5,98,86,76,80,77,74,95,77,47,30.04,29.93,7,1,12,0.00
2013-8-6,98,86,77,80,77,74,94,77,48,29.99,29.89,10,2,15,0.00
2013-8-7,98,86,78,79,77,72,95,77,43,29.96,29.86,9,2,16,0.00
2013-8-8,97,84,74,79,75,72,96,77,48,29.94,29.86,6,1,15,0.00
2013-8-9,99,84,75,79,76,73,94,78,45,29.98,29.87,10,1,17,0.03
2013-8-10,96,80,75,78,75,72,95,86,53,30.03,29.96,11,1,22,0.08
2013-8-11,92,83,75,79,76,74,96,81,59,30.07,30.00,10,2,13,0.00
2013-8-12,90,82,75,79,76,73,95,83,64,30.07,29.97,8,1,11,0.00
2013-8-13,98,85,75,80,77,74,96,78,50,30.02,29.90,8,1,12,0.00
2013-8-14,88,79,74,80,76,72,96,90,70,29.97,29.91,11,1,17,1.15
2013-8-15,89,78,72,77,73,68,96,85,62,30.01,29.89,8,2,10,0.56
2013-8-16,94,82,71,74,70,67,93,70,41,29.98,29.89,6,1,13,0.00
2013-8-17,93,80,69,70,66,64,86,65,40,29.97,29.88,8,2,14,0.00
2013-8-18,92,81,72,73,70,68,93,73,46,30.00,29.93,8,2,14,0.00
2013-8-19,93,81,71,73,70,66,94,73,41,30.03,29.92,7,2,11,0.00
2013-8-20,83,76,73,77,73,71,95,90,79,30.06,29.95,5,1,8,1.02
2013-8-21,93,81,72,79,74,71,96,81,58,30.08,29.98,7,2,11,0.01
2013-8-22,95,83,74,77,74,72,95,77,49,30.06,29.93,10,2,13,0.00
2013-8-23,96,84,74,78,74,72,95,75,49,29.99,29.86,6,2,14,0.00
2013-8-24,92,81,74,76,73,72,93,79,54,30.05,29.94,12,4,17,0.00
2013-8-25,84,78,74,77,74,72,94,88,77,30.11,30.02,10,3,15,0.09
2013-8-26,82,76,73,76,73,72,95,92,80,30.14,30.05,9,2,19,0.75
2013-8-27,94,80,70,75,72,68,96,78,43,30.11,30.00,11,1,12,0.00
2013-8-28,98,82,71,77,73,70,96,77,44,30.07,29.96,3,0,8,0.00
2013-8-29,94,82,74,78,75,73,96,81,56,30.05,29.95,8,1,12,0.00
2013-8-30,95,82,72,77,74,70,95,78,51,30.02,29.90,4,1,9,0.00
2013-8-31,94,82,72,78,74,70,96,78,50,29.96,29.84,6,1,15,0.00
2013-9-1,96,83,72,79,74,71,96,78,50,29.93,29.83,7,1,13,0.00
2013-9-2,93,82,74,79,76,72,96,83,56,29.96,29.84,5,1,11,0.06
2013-9-3,98,82,73,79,76,69,96,83,50,29.97,29.86,10,1,14,0.74
2013-9-4,94,81,73,79,75,72,97,83,58,30.04,29.91,6,1,15,0.00
2013-9-5,96,80,74,78,75,73,95,86,53,30.08,29.99,5,1,14,0.59
2013-9-6,91,81,73,78,75,72,95,84,59,30.07,29.96,6,1,11,0.20
2013-9-7,92,79,73,77,74,71,96,84,57,30.03,29.94,6,1,14,0.00
2013-9-8,95,80,68,77,72,67,96,78,45,29.99,29.89,6,1,9,0.00
2013-9-9,92,81,72,77,73,69,95,79,52,30.00,29.92,6,2,11,0.00
2013-9-10,94,81,73,76,73,71,95,78,50,30.07,29.97,7,2,16,0.00
2013-9-11,94,81,74,76,73,70,93,78,48,30.09,29.98,9,2,13,0.00
2013-9-12,96,82,72,76,72,67,95,76,40,30.03,29.89,8,2,13,0.00
2013-9-13,98,82,72,76,72,68,96,74,39,29.93,29.78,7,1,13,0.00
2013-9-14,91,80,74,75,73,70,90,80,59,29.94,29.84,9,2,16,0.00
2013-9-15,94,81,73,77,74,71,93,79,54,30.01,29.91,8,2,16,0.00
2013-9-16,93,82,73,77,74,71,95,78,48,30.03,29.95,9,2,12,0.00
2013-9-17,97,82,73,77,74,72,95,78,47,30.05,29.92,7,2,16,0.00
2013-9-18,95,82,74,77,74,70,94,77,45,30.00,29.90,10,2,14,0.00
2013-9-19,90,79,74,79,76,73,95,89,65,29.98,29.87,7,2,17,1.74
2013-9-20,80,77,74,78,76,72,97,96,93,29.92,29.73,7,1,14,3.11
2013-9-21,75,72,70,73,71,69,97,96,91,29.78,29.70,8,2,13,2.64
2013-9-22,83,74,66,70,63,59,94,70,50,29.82,29.73,13,4,18,0.00
2013-9-23,89,76,66,77,69,60,91,78,62,29.80,29.73,9,3,11,0.00
2013-9-24,92,81,72,79,75,70,96,83,59,29.83,29.75,6,1,12,0.00
2013-9-25,93,77,65,75,65,52,97,73,25,29.85,29.76,7,1,9,0.00
2013-9-26,96,78,66,74,68,63,97,76,34,29.92,29.81,3,0,6,0.00
2013-9-27,92,78,68,74,70,66,96,77,45,29.98,29.89,6,1,10,0.00
2013-9-28,92,80,70,75,72,69,94,79,51,30.01,29.93,9,2,12,0.00
2013-9-29,85,76,71,74,72,70,95,86,63,29.99,29.90,6,1,15,0.33
2013-9-30,77,74,71,75,72,70,97,95,89,29.91,29.82,6,1,13,1.98
2013-10-1,87,77,72,77,73,71,97,89,66,29.97,29.88,9,2,15,0.01
2013-10-2,90,78,72,77,73,70,97,86,57,30.01,29.91,7,2,11,0.06
2013-10-3,91,79,73,78,73,71,97,84,54,29.97,29.88,9,2,12,0.00
2013-10-4,90,79,73,78,75,72,97,86,61,29.96,29.89,8,2,14,0.25
2013-10-5,91,79,73,78,75,72,96,87,64,29.93,29.83,7,2,10,0.00
2013-10-6,76,69,57,74,59,48,96,74,41,30.02,29.86,10,2,17,0.00
2013-10-7,80,66,55,57,52,49,90,64,45,30.10,29.99,7,1,10,0.00
2013-10-8,80,65,54,60,56,52,94,76,46,30.09,29.99,7,1,9,0.00
2013-10-9,84,66,53,62,57,52,96,77,42,30.09,29.99,4,1,7,0.00
2013-10-10,85,69,57,68,62,56,97,82,53,30.08,29.96,5,1,8,0.01
2013-10-11,88,74,62,74,69,61,97,85,60,29.99,29.90,8,1,11,0.00
2013-10-12,91,78,69,79,74,68,97,87,58,30.10,29.93,9,2,16,0.69
2013-10-13,82,73,69,74,70,68,97,91,75,30.14,30.01,9,2,13,0.01
2013-10-14,86,76,70,75,71,68,96,86,65,30.10,29.97,4,0,7,0.00
2013-10-15,87,76,68,74,70,67,97,83,58,30.01,29.90,6,1,10,0.00
2013-10-16,84,75,67,75,70,66,97,86,68,29.95,29.87,3,0,8,0.00
2013-10-17,72,67,57,68,63,56,96,89,81,30.04,29.93,4,1,9,0.00
2013-10-18,71,63,55,61,58,54,97,84,61,30.05,29.89,12,2,13,0.01
2013-10-19,67,62,55,62,58,51,97,88,77,30.07,29.91,8,1,16,0.80
2013-10-20,75,60,49,59,52,48,94,79,47,30.09,29.95,8,1,9,0.00
2013-10-21,72,63,54,68,61,53,94,91,82,30.04,29.92,6,1,9,0.03
2013-10-22,73,64,54,66,61,52,96,89,73,30.05,29.95,5,1,11,0.00
2013-10-23,80,62,49,57,53,48,97,76,36,30.13,30.04,7,0,7,0.01
2013-10-24,83,64,50,62,56,49,96,78,47,30.21,30.11,5,0,6,0.00
2013-10-25,71,62,54,60,51,47,96,71,49,30.37,30.20,12,3,15,0.00
2013-10-26,79,61,48,62,53,46,95,77,41,30.27,30.11,4,0,7,0.00
2013-10-27,74,65,58,70,63,57,96,92,82,30.11,30.00,11,1,14,0.14
2013-10-28,82,69,59,73,66,58,97,89,70,30.14,30.02,5,0,6,0.04
2013-10-29,82,72,64,72,67,63,97,86,63,30.17,30.08,8,1,13,0.01
2013-10-30,81,73,67,74,70,66,96,89,72,30.11,29.91,13,4,20,0.00
2013-10-31,78,70,62,75,68,61,98,93,88,29.92,29.78,14,4,29,2.27
2013-11-1,80,64,55,64,58,54,98,84,40,29.95,29.83,2,0,6,0.01
2013-11-2,71,63,56,61,49,38,96,65,32,30.19,29.91,8,1,15,0.02
2013-11-3,66,55,46,50,46,43,94,73,47,30.25,30.11,8,1,10,0.00
2013-11-4,75,64,51,62,56,48,90,78,61,30.16,30.07,8,2,11,0.00
2013-11-5,80,70,61,71,65,60,96,87,71,30.11,30.01,9,2,15,0.02
2013-11-6,82,70,58,73,67,55,96,91,72,30.17,30.00,4,1,14,0.57
2013-11-7,66,56,49,54,46,42,90,71,42,30.34,30.18,9,1,16,0.00
2013-11-8,65,53,45,47,43,40,93,71,42,30.37,30.19,12,2,14,0.00
2013-11-9,72,59,47,51,47,44,93,69,37,30.23,30.14,3,0,7,0.00
2013-11-10,76,62,52,60,54,48,86,74,56,30.28,30.18,9,1,9,0.00
2013-11-11,76,62,52,59,54,50,95,77,51,30.25,30.13,2,0,5,0.00
2013-11-12,73,56,41,58,49,31,96,77,57,30.54,30.19,9,1,18,0.00
2013-11-13,58,44,34,33,29,25,78,60,32,30.58,30.42,9,1,14,0.00
2013-11-14,63,49,34,51,40,30,87,72,44,30.41,30.09,2,0,6,0.00
2013-11-15,79,63,52,64,57,47,96,82,56,30.10,29.93,4,0,7,0.00
2013-11-16,78,71,62,72,68,61,97,92,79,29.97,29.85,10,3,16,0.01
2013-11-17,81,75,72,76,73,71,97,93,84,29.94,29.83,11,2,16,0.04
2013-11-18,76,70,60,72,55,41,98,63,34,30.10,29.93,9,2,21,0.00
2013-11-19,66,58,50,44,42,37,77,57,38,30.18,30.05,16,3,17,0.00
2013-11-20,74,58,43,58,47,37,91,68,36,30.10,29.97,6,0,7,0.00
2013-11-21,78,67,57,71,65,56,97,93,79,30.13,30.02,10,1,14,0.06
2013-11-22,73,68,60,72,67,58,97,95,89,30.19,30.09,8,1,12,0.10
2013-11-23,60,52,45,59,50,40,97,91,82,30.37,30.17,14,2,17,0.03
2013-11-24,52,45,39,40,32,29,83,62,42,30.41,30.28,11,3,18,0.00
2013-11-25,42,40,38,40,36,32,96,86,69,30.31,29.95,10,1,13,1.89
2013-11-26,42,41,40,41,40,38,96,94,91,30.20,29.88,9,2,18,0.65
2013-11-27,50,40,31,40,34,30,95,79,52,30.43,30.19,6,0,13,0.00
2013-11-28,48,37,29,35,31,28,95,81,51,30.51,30.39,1,0,4,0.00
2013-11-29,60,41,27,37,32,26,96,74,30,30.53,30.40,7,0,7,0.00
2013-11-30,67,48,31,47,39,29,96,76,45,30.43,30.24,2,0,5,0.00
2013-12-1,78,55,39,58,49,38,97,82,45,30.25,29.96,3,0,4,0.01
2013-12-2,76,66,60,66,62,58,96,88,68,29.97,29.71,7,1,12,0.00
2013-12-3,76,68,63,69,66,62,97,93,78,29.77,29.67,7,1,9,0.00
2013-12-4,78,72,68,73,70,67,97,93,83,29.86,29.74,7,2,14,0.00
2013-12-5,80,70,54,74,68,53,96,92,81,29.96,29.84,12,2,19,0.04
2013-12-6,54,45,39,53,43,36,97,93,88,30.30,29.91,7,0,21,0.06
2013-12-7,39,37,35,36,32,-100,92,88,84,30.37,30.26,8,0,13,0.00
2013-12-8,45,40,35,44,38,33,96,94,91,30.27,30.06,4,0,5,0.76
2013-12-9,46,44,40,45,43,39,96,95,94,30.23,30.05,6,0,10,0.08
2013-12-10,50,41,37,39,36,34,94,82,61,30.42,30.24,11,1,18,0.01
2013-12-11,48,42,35,41,37,33,91,82,74,30.47,30.34,2,0,7,0.00
2013-12-12,54,44,36,40,35,32,89,73,51,30.55,30.35,4,0,10,0.00
2013-12-13,64,50,39,63,45,32,97,82,70,30.35,29.88,6,1,9,0.50
2013-12-14,65,57,45,63,53,39,97,86,70,30.20,29.84,9,2,19,0.04
2013-12-15,54,44,33,39,36,32,95,76,56,30.33,30.20,8,0,13,0.00
2013-12-16,58,42,29,44,36,28,97,83,48,30.36,30.25,3,0,4,0.00
2013-12-17,67,47,32,51,41,31,97,83,43,30.35,30.24,3,0,7,0.00
2013-12-18,68,50,38,55,44,37,97,81,38,30.35,30.17,5,0,10,0.01
2013-12-19,73,62,47,65,58,46,96,86,64,30.17,29.94,12,3,20,0.00
2013-12-20,76,70,66,70,68,65,95,92,83,29.98,29.84,17,5,24,0.00
2013-12-21,73,68,57,71,67,56,97,95,90,29.84,29.61,16,4,20,0.53
2013-12-22,64,57,43,62,54,38,98,89,76,30.26,29.80,10,1,14,0.02
2013-12-23,50,42,36,38,34,31,85,73,50,30.52,30.26,7,0,15,0.00
2013-12-24,53,40,29,38,33,28,95,78,49,30.57,30.35,8,0,10,0.00
2013-12-25,56,43,34,39,36,32,91,77,47,30.42,30.31,2,0,6,0.00
2013-12-26,59,47,35,42,38,34,93,74,43,30.42,30.29,8,0,8,0.00
2013-12-27,52,48,46,41,38,35,79,69,53,30.44,30.30,0,0,6,0.00
2013-12-28,53,47,37,44,40,36,95,76,63,30.29,30.02,1,0,4,0.00
2013-12-29,65,47,32,47,39,32,97,77,40,30.14,30.02,0,0,4,0.00
2013-12-30,49,47,42,45,42,39,90,83,79,30.37,30.12,3,0,9,0.00
2013-12-31,49,44,40,40,38,37,90,81,64,30.42,30.29,5,0,9,0.00
2014-1-1,60,51,44,54,48,39,96,90,74,30.29,30.02,2,0,6,0.01
2014-1-2,56,49,38,56,39,26,97,71,47,30.41,30.01,10,2,19,0.40